Time;durP1;ratioP1;P1;durP2;ratioP2;P2;SDS_P1;SDS_P2;PMS_P1;PMS_P2;Temp;Humidity;BMP_temperature;BMP_pressure;BME280_temperature;BME280_humidity;BME280_pressure;Samples;Min_cycle;Max_cycle;Signal;HPM_P1;HPM_P2
2022/05/21 00:02:05;;;;;;;1999.90;728.97;;;11.10;99.90;;;;;;5109392;28;20418;-80
2022/05/21 00:04:31;;;;;;;1999.90;674.88;;;11.20;99.90;;;;;;5110379;28;20043;-81
2022/05/21 00:06:57;;;;;;;1999.90;850.40;;;11.70;99.90;;;;;;5109947;28;20391;-80
2022/05/21 00:09:24;;;;;;;1999.90;949.50;;;13.80;99.90;;;;;;5110299;28;20098;-81
2022/05/21 00:11:50;;;;;;;1999.90;653.70;;;12.50;99.90;;;;;;5110034;28;20051;-80
2022/05/21 00:14:16;;;;;;;1999.90;904.28;;;11.10;99.90;;;;;;5075586;28;20052;-80
2022/05/21 00:16:42;;;;;;;1999.90;518.47;;;12.30;99.90;;;;;;5109611;28;20048;-80
2022/05/21 00:19:07;;;;;;;1999.90;821.92;;;11.20;99.90;;;;;;5091705;28;20050;-81
2022/05/21 00:21:33;;;;;;;1999.90;785.38;;;11.40;99.90;;;;;;5110331;28;20051;-80
2022/05/21 00:23:59;;;;;;;1999.90;792.80;;;11.50;99.90;;;;;;5109041;28;20047;-81
2022/05/21 00:26:25;;;;;;;1999.90;750.70;;;12.50;99.90;;;;;;5091466;28;20044;-80
2022/05/21 00:28:51;;;;;;;1999.90;999.90;;;12.20;99.90;;;;;;5112467;28;20098;-81
2022/05/21 00:31:18;;;;;;;1999.90;997.90;;;12.20;99.90;;;;;;5093879;28;20090;-80
2022/05/21 00:33:45;;;;;;;1999.90;874.58;;;11.10;99.90;;;;;;5113463;28;20125;-81
2022/05/21 00:36:12;;;;;;;1999.90;768.53;;;12.50;99.90;;;;;;5111996;28;20039;-81
2022/05/21 00:38:39;;;;;;;1948.45;477.58;;;12.00;99.90;;;;;;5113645;28;20131;-81
2022/05/21 00:41:06;;;;;;;1999.90;548.50;;;12.20;99.90;;;;;;5095422;28;20048;-81
2022/05/21 00:43:35;;;;;;;1999.90;571.47;;;12.00;99.90;;;;;;5094988;28;20044;-81
2022/05/21 00:46:02;;;;;;;1985.32;524.08;;;12.20;99.90;;;;;;5113899;28;20055;-80
2022/05/21 00:48:28;;;;;;;1999.90;576.50;;;11.30;99.90;;;;;;5113361;28;20048;-81
2022/05/21 00:50:54;;;;;;;1999.90;551.33;;;12.80;99.90;;;;;;5113769;28;20044;-81
2022/05/21 00:53:21;;;;;;;1999.90;730.58;;;11.20;99.90;;;;;;5113399;28;20052;-81
2022/05/21 00:55:48;;;;;;;1999.90;782.15;;;12.20;99.90;;;;;;5112251;28;20083;-81
2022/05/21 01:01:01;;;;;;;1999.90;832.33;;;12.60;99.90;;;;;;5112003;28;20581;-81
2022/05/21 01:03:29;;;;;;;1999.90;851.90;;;11.90;99.90;;;;;;5112438;28;20059;-81
2022/05/21 01:05:57;;;;;;;1999.90;983.00;;;12.10;99.90;;;;;;5112937;28;20042;-81
2022/05/21 01:08:23;;;;;;;1999.90;999.90;;;11.30;99.90;;;;;;5095649;28;20066;-81
2022/05/21 01:10:54;;;;;;;1999.90;813.50;;;13.10;99.90;;;;;;5112341;28;20043;-80
2022/05/21 01:13:24;;;;;;;1999.90;747.33;;;11.80;99.90;;;;;;5113417;28;20092;-81
2022/05/21 01:15:53;;;;;;;1999.90;918.85;;;11.60;99.90;;;;;;5094599;28;20043;-80
2022/05/21 01:18:20;;;;;;;1999.90;913.70;;;12.70;99.90;;;;;;5112501;28;20181;-80
2022/05/21 01:20:49;;;;;;;1999.90;813.13;;;12.70;99.90;;;;;;5112516;28;20409;-81
2022/05/21 01:23:16;;;;;;;1999.90;706.30;;;11.60;99.90;;;;;;5095076;28;20050;-81
2022/05/21 01:25:43;;;;;;;1999.90;710.67;;;11.40;99.90;;;;;;5095263;28;20048;-81
2022/05/21 01:28:14;;;;;;;1999.90;663.53;;;12.60;99.90;;;;;;5113156;28;20137;-81
2022/05/21 01:30:46;;;;;;;1999.90;912.45;;;12.90;99.90;;;;;;5112182;28;20079;-80
2022/05/21 01:33:13;;;;;;;1999.90;811.08;;;12.50;99.90;;;;;;5095102;28;20043;-81
2022/05/21 01:35:41;;;;;;;1999.90;759.08;;;12.90;99.90;;;;;;5112791;28;20467;-80
2022/05/21 01:38:11;;;;;;;1999.90;743.75;;;13.30;99.90;;;;;;5113959;28;20044;-80
2022/05/21 01:40:37;;;;;;;1999.90;984.22;;;12.80;99.90;;;;;;5112383;28;20043;-80
2022/05/21 01:45:51;;;;;;;1999.90;889.90;;;13.60;99.90;;;;;;5112258;28;20052;-80
2022/05/21 01:48:21;;;;;;;1999.90;999.90;;;13.00;99.90;;;;;;5112266;28;20444;-79
2022/05/21 01:50:48;;;;;;;1999.90;828.50;;;12.40;99.90;;;;;;5094461;28;20052;-79
2022/05/21 01:53:15;;;;;;;1999.90;743.58;;;12.60;99.90;;;;;;5112370;28;20051;-79
2022/05/21 01:55:41;;;;;;;1999.90;915.95;;;13.90;99.90;;;;;;5094088;28;20092;-79
2022/05/21 01:58:07;;;;;;;1999.90;927.10;;;13.00;99.90;;;;;;5111695;28;20047;-79
2022/05/21 02:00:33;;;;;;;1999.90;999.90;;;12.20;99.90;;;;;;5110004;28;20095;-81
2022/05/21 02:02:59;;;;;;;1999.90;999.90;;;13.10;99.90;;;;;;5111836;28;20043;-79
2022/05/21 02:05:24;;;;;;;1999.90;958.58;;;12.10;99.90;;;;;;5110878;28;20372;-79
2022/05/21 02:07:50;;;;;;;1999.90;990.22;;;14.00;99.90;;;;;;5111296;28;20429;-79
2022/05/21 02:10:16;;;;;;;1999.90;678.35;;;13.20;99.90;;;;;;5093604;28;20043;-78
2022/05/21 02:12:42;;;;;;;1999.90;978.38;;;13.40;99.90;;;;;;5111379;28;20047;-80
2022/05/21 02:15:09;;;;;;;1999.90;999.90;;;13.00;99.90;;;;;;5111329;28;20039;-81
2022/05/21 02:17:34;;;;;;;1999.90;923.92;;;12.20;99.90;;;;;;5111498;28;20043;-80
2022/05/21 02:20:00;;;;;;;1999.90;999.90;;;12.90;99.90;;;;;;5093205;28;20043;-80
2022/05/21 02:22:29;;;;;;;1999.90;948.00;;;12.00;99.90;;;;;;5111839;28;20043;-81
2022/05/21 02:24:55;;;;;;;1999.90;983.17;;;12.00;99.90;;;;;;5111862;28;20185;-81
2022/05/21 02:27:20;;;;;;;1999.90;749.55;;;13.00;99.90;;;;;;5094251;28;20134;-82
2022/05/21 02:29:46;;;;;;;1999.90;968.25;;;13.10;99.90;;;;;;5093430;28;20142;-81
2022/05/21 02:32:14;;;;;;;1999.90;939.88;;;12.50;99.90;;;;;;5112087;28;20150;-82
2022/05/21 02:34:41;;;;;;;;;;;12.90;99.90;;;;;;5094246;28;20051;-81
2022/05/21 02:39:51;;;;;;;1999.90;999.90;;;13.70;99.90;;;;;;5112080;28;20159;-82
2022/05/21 02:45:03;;;;;;;1999.90;999.90;;;12.50;99.90;;;;;;5111081;28;20379;-80
2022/05/21 02:47:30;;;;;;;1999.90;999.90;;;12.30;99.90;;;;;;5111717;28;20058;-80
2022/05/21 02:49:56;;;;;;;1999.90;895.40;;;13.50;99.90;;;;;;5111203;28;20070;-80
2022/05/21 02:52:22;;;;;;;1999.90;999.90;;;13.80;99.90;;;;;;5092471;28;20408;-80
2022/05/21 02:54:47;;;;;;;1999.90;993.88;;;13.80;99.90;;;;;;5093398;28;20047;-80
2022/05/21 02:57:13;;;;;;;1999.90;999.90;;;12.20;99.90;;;;;;5111667;28;20050;-82
2022/05/21 02:59:39;;;;;;;1999.90;924.00;;;13.80;99.90;;;;;;5110825;28;20108;-81
2022/05/21 03:02:06;;;;;;;1999.90;999.90;;;13.80;99.90;;;;;;5109039;28;20053;-81
2022/05/21 03:04:32;;;;;;;1999.90;955.70;;;12.20;99.90;;;;;;5111053;28;20116;-81
2022/05/21 03:06:58;;;;;;;1999.90;976.30;;;12.30;99.90;;;;;;5110688;28;20040;-79
2022/05/21 03:12:09;;;;;;;1999.90;999.90;;;15.20;99.90;;;;;;5092314;28;20051;-81
2022/05/21 03:14:35;;;;;;;1999.90;999.90;;;12.90;99.90;;;;;;5110543;28;20521;-80
2022/05/21 03:17:01;;;;;;;1999.90;999.90;;;12.90;99.90;;;;;;5110226;28;20039;-80
2022/05/21 03:19:28;;;;;;;1999.90;999.90;;;13.10;99.90;;;;;;5110919;28;20376;-80
2022/05/21 03:21:54;;;;;;;1999.90;998.67;;;14.10;99.90;;;;;;5110805;28;20054;-80
2022/05/21 03:24:20;;;;;;;1999.90;999.90;;;13.90;99.90;;;;;;5075543;28;20048;-80
2022/05/21 03:26:46;;;;;;;1999.90;999.90;;;14.00;99.90;;;;;;5092921;28;20055;-79
2022/05/21 03:29:12;;;;;;;1999.90;999.90;;;14.00;99.90;;;;;;5091970;28;20047;-81
2022/05/21 03:31:38;;;;;;;1999.90;986.60;;;13.60;99.90;;;;;;5109760;28;20438;-80
2022/05/21 03:34:03;;;;;;;1999.90;997.15;;;14.00;99.90;;;;;;5109647;28;20047;-80
2022/05/21 03:36:29;;;;;;;1999.90;994.88;;;12.80;99.90;;;;;;5109667;28;20396;-80
2022/05/21 03:38:55;;;;;;;1999.90;898.83;;;13.70;99.90;;;;;;5111128;28;20051;-80
2022/05/21 03:41:22;;;;;;;1999.90;830.72;;;12.80;99.90;;;;;;5109643;28;20053;-80
2022/05/21 03:43:47;;;;;;;1999.90;999.90;;;13.90;99.90;;;;;;5111551;28;20048;-81
2022/05/21 03:46:13;;;;;;;1999.90;934.65;;;13.90;99.90;;;;;;5109081;28;20050;-80
2022/05/21 03:48:39;;;;;;;1999.90;999.90;;;13.70;99.90;;;;;;5110632;28;20126;-79
2022/05/21 03:51:05;;;;;;;1999.90;999.22;;;15.30;99.90;;;;;;5110236;28;20048;-79
2022/05/21 03:53:31;;;;;;;1999.90;911.60;;;13.90;99.90;;;;;;5110880;28;20154;-80
2022/05/21 03:55:58;;;;;;;1999.90;999.90;;;13.20;99.90;;;;;;5111260;28;20458;-80
2022/05/21 03:58:23;;;;;;;1999.90;999.90;;;12.60;99.90;;;;;;5092538;28;20052;-80
2022/05/21 04:00:50;;;;;;;1999.90;999.90;;;13.80;99.90;;;;;;5108909;28;20055;-80
2022/05/21 04:03:16;;;;;;;1999.90;955.53;;;12.60;99.90;;;;;;5060938;28;20108;-81
2022/05/21 04:05:42;;;;;;;1999.90;999.90;;;12.70;99.90;;;;;;5113713;28;20097;-80
2022/05/21 04:08:08;;;;;;;1999.90;860.03;;;14.10;99.90;;;;;;5113516;28;20046;-80
2022/05/21 04:10:34;;;;;;;1999.90;999.90;;;12.60;99.90;;;;;;5096708;28;20433;-80
2022/05/21 04:13:00;;;;;;;1999.90;999.90;;;13.10;99.90;;;;;;5114043;28;20075;-79
2022/05/21 04:15:26;;;;;;;1999.90;922.50;;;12.60;99.90;;;;;;5113714;28;20435;-79
2022/05/21 04:17:53;;;;;;;1999.90;654.70;;;12.50;99.90;;;;;;5113367;28;20127;-79
2022/05/21 04:20:21;;;;;;;1999.90;873.85;;;13.20;99.90;;;;;;5114100;28;20047;-79
2022/05/21 04:22:47;;;;;;;1999.90;999.90;;;12.70;99.90;;;;;;5114215;28;20054;-78
2022/05/21 04:25:13;;;;;;;1999.90;864.20;;;13.00;99.90;;;;;;5114166;28;20069;-78
2022/05/21 04:27:39;;;;;;;1999.90;999.90;;;12.90;99.90;;;;;;5114105;28;20051;-79
2022/05/21 04:30:10;;;;;;;1999.90;959.25;;;12.70;99.90;;;;;;5114057;28;20472;-79
2022/05/21 04:32:36;;;;;;;1834.63;625.22;;;12.70;99.90;;;;;;5113040;28;20047;-79
2022/05/21 04:35:01;;;;;;;1999.90;964.70;;;13.20;99.90;;;;;;5113842;28;20051;-79
2022/05/21 04:37:27;;;;;;;1999.90;908.33;;;13.40;99.90;;;;;;5113914;28;20044;-79
2022/05/21 04:39:53;;;;;;;1999.90;787.83;;;12.80;99.90;;;;;;5114402;28;20484;-79
2022/05/21 04:42:18;;;;;;;1999.90;984.88;;;13.70;99.90;;;;;;5113212;28;20480;-80
2022/05/21 04:44:44;;;;;;;1999.90;983.70;;;14.10;99.90;;;;;;5114040;28;20083;-80
2022/05/21 04:47:10;;;;;;;1999.90;999.90;;;14.20;99.90;;;;;;5114137;28;20043;-79
2022/05/21 04:49:35;;;;;;;1999.90;998.15;;;14.20;99.90;;;;;;5112102;28;20120;-80
2022/05/21 04:52:03;;;;;;;1990.88;768.50;;;12.70;99.90;;;;;;5113542;28;20382;-80
2022/05/21 04:54:30;;;;;;;1999.90;980.75;;;14.20;99.90;;;;;;5113368;28;20048;-79
2022/05/21 04:56:55;;;;;;;1999.90;910.22;;;12.80;99.90;;;;;;5113391;28;20101;-79
2022/05/21 04:59:21;;;;;;;1999.90;880.97;;;13.90;99.90;;;;;;5112464;28;20047;-79
2022/05/21 05:01:47;;;;;;;1999.90;827.47;;;14.00;99.90;;;;;;5111920;28;20138;-80
2022/05/21 05:04:13;;;;;;;1999.90;923.90;;;13.80;99.90;;;;;;5113162;28;20476;-79
2022/05/21 05:06:39;;;;;;;1999.90;999.90;;;12.60;99.90;;;;;;5095368;28;20040;-80
2022/05/21 05:09:07;;;;;;;1999.90;999.90;;;13.70;99.90;;;;;;5113892;28;20039;-80
2022/05/21 05:11:33;;;;;;;1999.90;920.08;;;13.90;99.90;;;;;;5111910;28;20039;-80
2022/05/21 05:13:59;;;;;;;1999.90;730.03;;;13.10;99.90;;;;;;5111634;28;20072;-79
2022/05/21 05:16:25;;;;;;;1999.90;940.05;;;14.20;99.90;;;;;;5111840;28;20043;-80
2022/05/21 05:18:50;;;;;;;1999.90;920.30;;;13.40;99.90;;;;;;5113216;28;20075;-80
2022/05/21 05:21:16;;;;;;;1999.90;779.40;;;13.40;99.90;;;;;;5113151;28;20468;-78
2022/05/21 05:23:42;;;;;;;1999.90;791.45;;;15.00;99.90;;;;;;5114148;28;20509;-80
2022/05/21 05:26:07;;;;;;;1999.90;874.42;;;14.10;99.90;;;;;;5112801;28;20396;-80
2022/05/21 05:28:33;;;;;;;1990.65;722.65;;;13.00;99.90;;;;;;5113159;28;20043;-79
2022/05/21 05:30:59;;;;;;;1999.90;741.33;;;13.10;99.90;;;;;;5094435;28;20047;-80
2022/05/21 05:33:26;;;;;;;1999.90;787.42;;;14.20;99.90;;;;;;5094542;28;20043;-81
2022/05/21 05:35:52;;;;;;;1833.22;611.42;;;13.30;99.90;;;;;;5113537;28;20044;-80
2022/05/21 05:38:19;;;;;;;1999.90;811.33;;;13.30;99.90;;;;;;5112248;28;20074;-80
2022/05/21 05:40:47;;;;;;;1779.70;483.55;;;14.00;99.90;;;;;;5112646;28;20484;-80
2022/05/21 05:43:16;;;;;;;1999.90;769.42;;;14.00;99.90;;;;;;5113186;28;20043;-80
2022/05/21 05:45:41;;;;;;;1981.22;628.65;;;13.00;99.90;;;;;;5113214;28;20476;-80
2022/05/21 05:48:07;;;;;;;1999.90;585.20;;;13.30;99.90;;;;;;5113081;28;20079;-80
2022/05/21 05:50:33;;;;;;;1999.90;793.00;;;13.90;99.90;;;;;;5112188;28;20052;-81
2022/05/21 05:53:01;;;;;;;1999.90;634.97;;;14.00;99.90;;;;;;5094935;28;20067;-80
2022/05/21 05:55:26;;;;;;;1999.90;699.85;;;13.80;99.90;;;;;;5113003;28;20088;-81
2022/05/21 05:57:52;;;;;;;1999.90;728.00;;;13.40;99.90;;;;;;5112917;28;20044;-81
2022/05/21 06:00:20;;;;;;;1985.90;629.58;;;13.30;99.90;;;;;;5093538;28;20081;-79
2022/05/21 06:02:58;;;;;;;1999.90;810.88;;;14.40;99.90;;;;;;5111997;28;20362;-78
2022/05/21 06:05:25;;;;;;;1999.90;747.05;;;13.10;99.90;;;;;;5113047;28;20360;-80
2022/05/21 06:07:54;;;;;;;1859.20;618.85;;;13.40;99.90;;;;;;5112899;28;20050;-81
2022/05/21 06:10:24;;;;;;;1999.90;800.40;;;13.00;99.90;;;;;;5112759;28;20130;-79
2022/05/21 06:12:49;;;;;;;1960.97;531.20;;;13.70;99.90;;;;;;5113810;28;20066;-79
2022/05/21 06:15:16;;;;;;;1999.90;644.08;;;14.20;99.90;;;;;;5112611;28;20480;-81
2022/05/21 06:17:43;;;;;;;1999.90;764.72;;;13.10;99.90;;;;;;5112614;28;20050;-81
2022/05/21 06:20:14;;;;;;;1999.90;688.08;;;13.20;99.90;;;;;;5111887;28;20046;-80
2022/05/21 06:22:40;;;;;;;1999.90;635.58;;;13.20;99.90;;;;;;5112619;28;20046;-80
2022/05/21 06:25:06;;;;;;;1999.90;807.13;;;13.60;99.90;;;;;;5111990;28;20048;-80
2022/05/21 06:27:32;;;;;;;1999.90;733.05;;;13.20;99.90;;;;;;5112169;28;20122;-80
2022/05/21 06:29:58;;;;;;;1999.90;611.85;;;13.50;99.90;;;;;;5111601;28;20098;-78
2022/05/21 06:32:24;;;;;;;1744.40;418.73;;;13.60;99.90;;;;;;5112222;28;20044;-80
2022/05/21 06:34:49;;;;;;;1999.90;865.35;;;13.30;99.90;;;;;;5111910;28;20126;-81
2022/05/21 06:37:15;;;;;;;1979.32;845.88;;;;;;;;;;5112459;28;20369;-80
2022/05/21 06:39:44;;;;;;;1999.90;577.67;;;13.70;99.90;;;;;;5111804;28;20047;-80
2022/05/21 06:42:12;;;;;;;1999.90;682.30;;;14.20;99.90;;;;;;5112152;28;20051;-80
2022/05/21 06:44:38;;;;;;;1999.90;802.08;;;13.50;99.90;;;;;;5111243;28;20047;-80
2022/05/21 06:47:04;;;;;;;1999.90;751.92;;;14.90;99.90;;;;;;5111598;28;20493;-80
2022/05/21 06:49:30;;;;;;;1999.90;736.63;;;15.30;99.90;;;;;;5094020;28;20047;-79
2022/05/21 06:51:58;;;;;;;1999.90;743.47;;;14.30;99.90;;;;;;5111269;28;20448;-79
2022/05/21 06:54:24;;;;;;;1970.03;557.72;;;14.90;99.90;;;;;;5111551;28;20522;-80
2022/05/21 06:56:50;;;;;;;1809.07;429.02;;;15.10;99.90;;;;;;5110622;28;20491;-79
2022/05/21 06:59:17;;;;;;;1994.85;467.80;;;15.00;99.90;;;;;;5111530;28;20162;-79
2022/05/21 07:01:43;;;;;;;1999.90;673.35;;;13.70;99.90;;;;;;5110176;28;20123;-79
2022/05/21 07:04:09;;;;;;;1999.90;985.90;;;15.40;99.90;;;;;;5093075;28;20047;-79
2022/05/21 07:09:21;;;;;;;1999.90;820.30;;;16.70;99.90;;;;;;5111736;28;20058;-79
2022/05/21 07:11:51;;;;;;;1999.90;999.90;;;15.30;99.90;;;;;;5092586;28;20054;-78
2022/05/21 07:14:17;;;;;;;1999.90;868.83;;;14.50;99.90;;;;;;5111815;28;20285;-79
2022/05/21 07:16:44;;;;;;;1999.90;852.10;;;15.70;99.90;;;;;;5092862;28;20043;-79
2022/05/21 07:19:10;;;;;;;1999.90;999.90;;;16.00;99.90;;;;;;5111774;28;20051;-79
2022/05/21 07:21:36;;;;;;;1999.90;999.90;;;17.20;99.90;;;;;;5111487;28;20044;-78
2022/05/21 07:24:03;;;;;;;1999.90;999.90;;;17.40;99.90;;;;;;5111426;28;20054;-79
2022/05/21 07:26:28;;;;;;;1999.90;995.75;;;16.80;99.90;;;;;;5111355;28;20346;-79
2022/05/21 07:28:56;;;;;;;1999.90;999.90;;;17.60;99.90;;;;;;5111908;28;20047;-79
2022/05/21 07:31:22;;;;;;;1999.90;999.90;;;16.90;99.90;;;;;;5111219;28;20179;-78
2022/05/21 07:33:48;;;;;;;1999.90;790.35;;;16.50;99.90;;;;;;5092903;28;20044;-78
2022/05/21 07:36:14;;;;;;;1999.90;876.20;;;17.40;99.90;;;;;;5092852;28;20090;-78
2022/05/21 07:38:39;;;;;;;1999.90;999.90;;;18.10;99.90;;;;;;5095851;28;20048;-79
2022/05/21 07:41:06;;;;;;;1999.90;921.63;;;18.10;99.90;;;;;;5115054;28;20172;-79
2022/05/21 07:43:31;;;;;;;1999.90;999.90;;;17.70;99.90;;;;;;5096818;28;20052;-77
2022/05/21 07:45:58;;;;;;;1999.90;987.30;;;17.20;99.90;;;;;;5115086;28;20051;-78
2022/05/21 07:48:25;;;;;;;1999.90;999.90;;;17.20;99.90;;;;;;5115682;28;20058;-78
2022/05/21 07:50:54;;;;;;;1999.90;999.90;;;16.60;99.90;;;;;;5115101;28;20047;-78
2022/05/21 07:53:23;;;;;;;1999.90;999.90;;;16.50;99.90;;;;;;5114718;28;20039;-79
2022/05/21 07:55:51;;;;;;;1999.90;999.90;;;16.40;99.90;;;;;;5114607;28;20042;-79
2022/05/21 07:58:18;;;;;;;1999.90;999.90;;;16.20;99.90;;;;;;5096565;28;20052;-74
2022/05/21 08:00:45;;;;;;;1999.90;999.90;;;15.80;99.90;;;;;;5078835;28;20188;-76
2022/05/21 08:03:11;;;;;;;1999.90;999.90;;;15.80;99.90;;;;;;5114736;28;20130;-77
2022/05/21 08:05:38;;;;;;;1999.90;999.90;;;15.90;99.90;;;;;;5095474;28;20040;-77
2022/05/21 08:08:05;;;;;;;1999.90;998.30;;;16.60;99.90;;;;;;5114789;28;20085;-79
2022/05/21 08:10:31;;;;;;;1999.90;999.90;;;17.40;99.90;;;;;;5114425;28;20044;-78
2022/05/21 08:12:57;;;;;;;1999.90;999.90;;;18.20;99.90;;;;;;5114820;28;20130;-77
2022/05/21 08:15:23;;;;;;;1999.90;999.90;;;18.20;99.90;;;;;;5114703;28;20055;-77
2022/05/21 08:17:49;;;;;;;1999.90;999.90;;;18.20;99.90;;;;;;5096472;28;20044;-78
2022/05/21 08:20:15;;;;;;;1880.63;999.90;;;19.00;99.90;;;;;;5095997;28;20046;-77
2022/05/21 08:28:32;;;;;;;1813.10;999.90;;;19.80;99.90;;;;;;5016395;28;20530;-78
2022/05/21 08:30:59;;;;;;;1626.03;999.90;;;19.60;99.90;;;;;;5012959;28;20046;-78
2022/05/21 08:33:25;;;;;;;1854.63;999.90;;;19.20;99.90;;;;;;5060290;28;20155;-78
2022/05/21 08:35:51;;;;;;;1248.55;934.80;;;18.90;99.90;;;;;;5095579;28;20114;-78
2022/05/21 08:38:17;;;;;;;1027.47;887.22;;;18.60;99.90;;;;;;5114603;28;20062;-78
2022/05/21 08:40:55;;;;;;;1557.28;999.90;;;19.20;99.90;;;;;;5095493;28;20048;-78
2022/05/21 08:43:37;;;;;;;1338.07;999.90;;;19.80;99.90;;;;;;5114191;28;20134;-78
2022/05/21 08:46:09;;;;;;;1158.45;945.70;;;20.00;99.90;;;;;;5095243;28;20183;-79
2022/05/21 08:48:37;;;;;;;1105.13;971.58;;;20.10;99.90;;;;;;5113077;28;20043;-79
2022/05/21 08:51:10;;;;;;;1050.10;941.97;;;20.70;99.90;;;;;;5096233;28;20047;-78
2022/05/21 08:53:43;;;;;;;943.30;849.83;;;20.50;99.90;;;;;;5095919;28;20052;-80
2022/05/21 08:56:09;;;;;;;1008.80;907.90;;;19.60;99.90;;;;;;5114107;28;20047;-79
2022/05/21 08:58:50;;;;;;;1016.35;917.15;;;20.00;99.90;;;;;;5114293;28;20131;-80
2022/05/21 09:01:21;;;;;;;743.33;681.00;;;20.70;99.90;;;;;;5113956;28;20408;-78
2022/05/21 09:03:50;;;;;;;764.80;694.65;;;21.30;99.90;;;;;;5113336;28;20044;-78
2022/05/21 09:06:18;;;;;;;762.25;696.50;;;20.90;99.90;;;;;;5096066;28;20058;-78
2022/05/21 09:08:59;;;;;;;801.33;735.88;;;21.10;99.90;;;;;;5114062;28;20071;-79
2022/05/21 09:11:43;;;;;;;802.47;734.72;;;20.60;99.90;;;;;;5114442;28;20070;-79
2022/05/21 09:14:36;;;;;;;813.40;735.13;;;20.50;99.90;;;;;;5114360;28;20067;-79
2022/05/21 09:17:09;;;;;;;662.65;612.78;;;21.60;99.90;;;;;;5113587;28;20456;-79
2022/05/21 09:19:42;;;;;;;551.13;512.70;;;21.90;99.90;;;;;;5114331;28;20122;-79
2022/05/21 09:22:13;;;;;;;386.50;360.27;;;21.40;99.90;;;;;;5096451;28;20039;-77
2022/05/21 09:24:47;;;;;;;520.83;477.92;;;20.60;99.90;;;;;;5113088;28;20142;-81
2022/05/21 09:27:42;;;;;;;526.15;478.55;;;20.10;99.90;;;;;;5095699;28;20047;-79
2022/05/21 09:30:16;;;;;;;444.73;413.83;;;20.60;99.90;;;;;;5113732;28;20048;-79
2022/05/21 09:32:46;;;;;;;740.85;612.67;;;20.10;99.90;;;;;;5113253;28;20075;-78
2022/05/21 09:35:18;;;;;;;576.03;522.05;;;19.40;99.90;;;;;;5113745;28;20054;-79
2022/05/21 09:37:45;;;;;;;545.47;498.08;;;19.50;99.90;;;;;;5113449;28;20047;-78
2022/05/21 09:40:36;;;;;;;540.33;494.63;;;20.50;99.90;;;;;;5078468;28;20464;-79
2022/05/21 09:46:28;;;;;;;390.88;361.75;;;20.90;99.90;;;;;;5073575;28;20054;-81
2022/05/21 09:49:11;;;;;;;418.90;390.40;;;21.70;99.90;;;;;;5101542;28;20204;-80
2022/05/21 09:51:40;;;;;;;429.80;398.08;;;21.40;99.90;;;;;;5113480;28;20047;-79
2022/05/21 09:54:23;;;;;;;501.85;465.33;;;20.90;99.90;;;;;;5095439;28;20054;-81
2022/05/21 09:56:54;;;;;;;754.50;689.67;;;20.70;99.90;;;;;;5094477;28;20115;-80
2022/05/21 09:59:23;;;;;;;433.25;404.40;;;21.60;99.90;;;;;;5094377;28;20048;-82
2022/05/21 10:01:56;;;;;;;466.05;433.10;;;23.20;99.90;;;;;;5093424;28;20081;-79
2022/05/21 10:04:27;;;;;;;626.75;576.28;;;23.70;99.90;;;;;;5112247;28;20043;-79
2022/05/21 10:07:11;;;;;;;462.33;430.00;;;23.80;99.90;;;;;;5093189;28;20165;-79
2022/05/21 10:12:41;;;;;;;302.30;283.92;;;22.70;99.90;;;;;;5113239;28;20112;-81
2022/05/21 10:15:26;;;;;;;524.97;488.23;;;22.00;99.90;;;;;;5112631;28;20123;-79
2022/05/21 10:18:32;;;;;;;657.83;603.65;;;22.60;99.90;;;;;;5112242;28;20052;-77
2022/05/21 10:21:07;;;;;;;475.85;443.08;;;22.30;99.90;;;;;;5092724;28;20082;-82
2022/05/21 10:23:56;;;;;;;867.42;784.38;;;21.70;99.90;;;;;;5093985;28;20047;-78
2022/05/21 10:26:51;;;;;;;502.38;464.25;;;21.50;99.90;;;;;;5111905;28;20069;-79
2022/05/21 10:29:40;;;;;;;436.80;405.70;;;21.00;99.90;;;;;;5093872;28;20585;-78
2022/05/21 10:32:26;;;;;;;393.08;365.38;;;20.90;99.90;;;;;;5111674;28;20054;-78
2022/05/21 10:35:46;;;;;;;428.30;398.90;;;21.10;99.90;;;;;;5112159;28;20043;-79
2022/05/21 10:38:29;;;;;;;265.10;247.35;;;20.70;99.90;;;;;;5009533;28;20371;-79
2022/05/21 10:41:03;;;;;;;530.97;494.40;;;20.40;99.90;;;;;;5084574;28;20119;-77
2022/05/21 10:43:32;;;;;;;620.40;569.30;;;20.20;99.90;;;;;;5114676;28;20441;-80
2022/05/21 10:46:07;;;;;;;203.10;190.55;;;19.80;99.90;;;;;;5112148;28;20043;-80
2022/05/21 10:48:33;;;;;;;676.83;612.30;;;19.90;99.90;;;;;;5112315;28;20100;-80
2022/05/21 10:51:08;;;;;;;657.25;593.78;;;19.90;99.90;;;;;;5092994;28;20043;-80
2022/05/21 10:54:22;;;;;;;1157.15;929.97;;;20.00;99.90;;;;;;5094113;28;20050;-80
2022/05/21 10:57:06;;;;;;;699.95;632.33;;;19.70;99.90;;;;;;4992045;28;20037;-81
2022/05/21 11:00:13;;;;;;;815.72;731.33;;;18.80;99.90;;;;;;5099887;28;20551;-81
2022/05/21 11:03:07;;;;;;;499.83;458.67;;;19.70;99.90;;;;;;5008735;28;20133;-81
2022/05/21 11:05:53;;;;;;;457.67;425.35;;;20.20;99.90;;;;;;5004413;28;20053;-81
2022/05/21 11:08:28;;;;;;;624.67;572.20;;;21.30;99.90;;;;;;5072330;28;20055;-81
2022/05/21 11:11:22;;;;;;;495.05;455.30;;;22.00;99.90;;;;;;5092894;28;20221;-80
2022/05/21 11:13:55;;;;;;;592.25;548.78;;;21.40;99.90;;;;;;5101918;28;20490;-83
2022/05/21 11:16:31;;;;;;;589.40;534.45;;;20.10;99.90;;;;;;5105465;28;20039;-80
2022/05/21 11:19:02;;;;;;;361.70;336.40;;;20.00;99.90;;;;;;5075044;28;20044;-82
2022/05/21 11:21:34;;;;;;;571.05;516.22;;;20.90;99.90;;;;;;5109292;28;20104;-80
2022/05/21 11:24:15;;;;;;;959.45;677.55;;;21.20;99.90;;;;;;5109534;28;20134;-81
2022/05/21 11:26:47;;;;;;;568.80;525.20;;;22.30;99.90;;;;;;5073163;28;20058;-81
2022/05/21 11:29:44;;;;;;;601.90;555.50;;;23.00;99.90;;;;;;5109964;28;20050;-81
2022/05/21 11:38:24;;;;;;;659.45;607.67;;;22.30;99.90;;;;;;5109793;28;20051;-81
2022/05/21 11:47:06;;;;;;;658.92;608.42;;;20.10;99.90;;;;;;5109957;28;20055;-80
2022/05/21 11:49:50;;;;;;;712.22;656.00;;;20.30;99.90;;;;;;5111015;28;20507;-79
2022/05/21 11:52:28;;;;;;;724.53;664.83;;;20.40;99.90;;;;;;5092549;28;20134;-80
2022/05/21 11:54:53;;;;;;;678.33;625.20;;;20.70;99.90;;;;;;5075530;28;20105;-80
2022/05/21 11:57:32;;;;;;;793.83;729.00;;;20.00;99.90;;;;;;5091860;28;20106;-80
2022/05/21 11:59:59;;;;;;;761.20;702.80;;;20.10;99.90;;;;;;5091808;28;20119;-81
2022/05/21 12:02:31;;;;;;;798.55;733.30;;;20.10;99.90;;;;;;5093058;28;20154;-81
2022/05/21 12:05:05;;;;;;;694.83;641.22;;;19.90;99.90;;;;;;5072887;28;20040;-80
2022/05/21 12:07:49;;;;;;;685.08;631.30;;;19.80;99.90;;;;;;5092219;28;20047;-81
2022/05/21 12:11:16;;;;;;;647.53;596.90;;;19.70;99.90;;;;;;5092736;28;20047;-81
2022/05/21 12:14:01;;;;;;;628.83;581.00;;;19.40;99.90;;;;;;5077669;28;20067;-79
2022/05/21 12:16:29;;;;;;;730.63;667.35;;;19.50;99.90;;;;;;5110725;28;20040;-81
2022/05/21 12:18:57;;;;;;;775.63;700.60;;;19.30;99.90;;;;;;5110114;28;20051;-81
2022/05/21 12:21:40;;;;;;;741.35;678.25;;;19.40;99.90;;;;;;5110764;28;20051;-82
2022/05/21 12:24:39;;;;;;;964.13;863.45;;;19.50;99.90;;;;;;5111435;28;20051;-82
2022/05/21 12:27:21;;;;;;;712.33;650.00;;;19.60;99.90;;;;;;5114009;28;20040;-80
2022/05/21 12:29:49;;;;;;;824.90;747.13;;;19.40;99.90;;;;;;5112785;28;20122;-81
2022/05/21 12:32:23;;;;;;;807.25;731.05;;;19.20;99.90;;;;;;5114229;28;20035;-80
2022/05/21 12:35:13;;;;;;;774.50;708.05;;;18.80;99.90;;;;;;5114412;28;20112;-81
2022/05/21 12:37:43;;;;;;;761.30;695.30;;;18.90;99.90;;;;;;5096051;28;20043;-81
2022/05/21 12:40:29;;;;;;;799.40;724.00;;;18.90;99.90;;;;;;5114253;28;20171;-80
2022/05/21 12:43:02;;;;;;;879.80;798.92;;;18.50;99.90;;;;;;5114352;28;20043;-81
2022/05/21 12:45:37;;;;;;;788.75;722.45;;;18.40;99.90;;;;;;5113660;28;20044;-82
2022/05/21 12:48:10;;;;;;;843.97;766.78;;;18.60;99.90;;;;;;5113652;28;20189;-81
2022/05/21 12:51:04;;;;;;;974.35;871.42;;;18.60;99.90;;;;;;5096341;28;20488;-80
2022/05/21 12:53:37;;;;;;;944.42;846.72;;;18.60;99.90;;;;;;5096220;28;20476;-79
2022/05/21 12:56:18;;;;;;;1005.72;897.97;;;18.50;99.90;;;;;;5113684;28;20040;-80
2022/05/21 12:58:44;;;;;;;1000.20;884.35;;;18.50;99.90;;;;;;5115748;28;20058;-80